sensor_id;sensor_type;location;lat;lon;timestamp;pressure;altitude;pressure_sealevel;temperature;humidity
73671;BME280;61968;48.178;11.566;2023-04-24T00:00:39;94878.47;;;13.41;41.97
73671;BME280;61968;48.178;11.566;2023-04-24T00:03:06;94869.44;;;13.42;42.53
73671;BME280;61968;48.178;11.566;2023-04-24T00:05:33;94883.00;;;13.35;42.08
73671;BME280;61968;48.178;11.566;2023-04-24T00:07:59;94878.50;;;13.25;42.21
73671;BME280;61968;48.178;11.566;2023-04-24T00:10:26;94867.06;;;13.40;42.73
73671;BME280;61968;48.178;11.566;2023-04-24T00:12:52;94867.59;;;13.57;41.50
73671;BME280;61968;48.178;11.566;2023-04-24T00:15:19;94866.53;;;13.53;42.18
73671;BME280;61968;48.178;11.566;2023-04-24T00:17:46;94858.81;;;13.47;42.48
73671;BME280;61968;48.178;11.566;2023-04-24T00:20:13;94863.31;;;13.46;42.40
73671;BME280;61968;48.178;11.566;2023-04-24T00:22:40;94874.72;;;13.57;41.50
73671;BME280;61968;48.178;11.566;2023-04-24T00:25:07;94862.28;;;13.52;42.38
73671;BME280;61968;48.178;11.566;2023-04-24T00:27:33;94864.34;;;13.71;41.98
73671;BME280;61968;48.178;11.566;2023-04-24T00:30:02;94863.56;;;13.70;41.18
73671;BME280;61968;48.178;11.566;2023-04-24T00:32:29;94864.94;;;13.57;41.67
73671;BME280;61968;48.178;11.566;2023-04-24T00:34:57;94866.50;;;13.48;41.58
73671;BME280;61968;48.178;11.566;2023-04-24T00:37:24;94867.06;;;13.55;41.38
73671;BME280;61968;48.178;11.566;2023-04-24T00:39:50;94862.53;;;13.46;42.25
73671;BME280;61968;48.178;11.566;2023-04-24T00:42:17;94859.09;;;13.30;41.36
73671;BME280;61968;48.178;11.566;2023-04-24T00:44:43;94866.81;;;13.26;41.08
73671;BME280;61968;48.178;11.566;2023-04-24T00:47:10;94866.56;;;13.18;41.05
73671;BME280;61968;48.178;11.566;2023-04-24T00:49:38;94873.44;;;13.29;41.81
73671;BME280;61968;48.178;11.566;2023-04-24T00:52:05;94865.50;;;13.19;41.48
73671;BME280;61968;48.178;11.566;2023-04-24T00:54:34;94856.50;;;13.04;42.29
73671;BME280;61968;48.178;11.566;2023-04-24T00:57:00;94858.59;;;13.28;41.35
73671;BME280;61968;48.178;11.566;2023-04-24T00:59:27;94858.34;;;12.83;40.86
73671;BME280;61968;48.178;11.566;2023-04-24T01:01:54;94848.75;;;12.57;43.05
73671;BME280;61968;48.178;11.566;2023-04-24T01:04:21;94861.25;;;12.66;42.42
73671;BME280;61968;48.178;11.566;2023-04-24T01:06:48;94860.19;;;12.73;42.81
73671;BME280;61968;48.178;11.566;2023-04-24T01:09:18;94862.34;;;12.81;41.87
73671;BME280;61968;48.178;11.566;2023-04-24T01:11:45;94858.91;;;12.70;41.29
73671;BME280;61968;48.178;11.566;2023-04-24T01:14:11;94860.19;;;12.62;42.13
73671;BME280;61968;48.178;11.566;2023-04-24T01:16:38;94856.25;;;12.80;41.71
73671;BME280;61968;48.178;11.566;2023-04-24T01:19:05;94858.59;;;13.02;41.82
73671;BME280;61968;48.178;11.566;2023-04-24T01:21:34;94857.56;;;12.88;40.65
73671;BME280;61968;48.178;11.566;2023-04-24T01:24:04;94852.78;;;12.75;41.69
73671;BME280;61968;48.178;11.566;2023-04-24T01:26:31;94850.69;;;12.82;40.37
73671;BME280;61968;48.178;11.566;2023-04-24T01:28:58;94846.41;;;12.81;41.08
73671;BME280;61968;48.178;11.566;2023-04-24T01:31:25;94848.81;;;12.87;41.05
73671;BME280;61968;48.178;11.566;2023-04-24T01:33:52;94847.47;;;12.95;40.67
73671;BME280;61968;48.178;11.566;2023-04-24T01:36:20;94837.63;;;13.06;41.04
73671;BME280;61968;48.178;11.566;2023-04-24T01:38:47;94845.88;;;13.04;39.48
73671;BME280;61968;48.178;11.566;2023-04-24T01:41:15;94835.81;;;12.91;41.20
73671;BME280;61968;48.178;11.566;2023-04-24T01:43:42;94840.56;;;13.04;39.85
73671;BME280;61968;48.178;11.566;2023-04-24T01:46:08;94844.03;;;12.89;39.79
73671;BME280;61968;48.178;11.566;2023-04-24T01:48:35;94842.72;;;12.92;41.16
73671;BME280;61968;48.178;11.566;2023-04-24T01:51:02;94842.69;;;12.87;40.49
73671;BME280;61968;48.178;11.566;2023-04-24T01:53:28;94843.50;;;12.87;40.03
73671;BME280;61968;48.178;11.566;2023-04-24T01:55:55;94841.38;;;12.84;39.72
73671;BME280;61968;48.178;11.566;2023-04-24T01:58:22;94840.31;;;12.90;40.66
73671;BME280;61968;48.178;11.566;2023-04-24T02:00:49;94849.06;;;12.86;40.71
73671;BME280;61968;48.178;11.566;2023-04-24T02:03:16;94836.34;;;12.67;40.60
73671;BME280;61968;48.178;11.566;2023-04-24T02:05:43;94845.31;;;12.46;39.97
73671;BME280;61968;48.178;11.566;2023-04-24T02:08:10;94841.88;;;12.56;39.86
73671;BME280;61968;48.178;11.566;2023-04-24T02:10:36;94840.56;;;12.43;40.58
73671;BME280;61968;48.178;11.566;2023-04-24T02:13:03;94846.34;;;12.35;40.71
73671;BME280;61968;48.178;11.566;2023-04-24T02:15:31;94842.69;;;12.46;41.21
73671;BME280;61968;48.178;11.566;2023-04-24T02:17:57;94840.53;;;12.48;39.68
73671;BME280;61968;48.178;11.566;2023-04-24T02:20:24;94837.31;;;12.15;40.49
73671;BME280;61968;48.178;11.566;2023-04-24T02:22:50;94841.47;;;11.91;40.73
73671;BME280;61968;48.178;11.566;2023-04-24T02:25:17;94838.25;;;11.73;40.96
73671;BME280;61968;48.178;11.566;2023-04-24T02:27:43;94836.94;;;11.76;41.25
73671;BME280;61968;48.178;11.566;2023-04-24T02:30:10;94834.47;;;11.64;41.07
73671;BME280;61968;48.178;11.566;2023-04-24T02:32:38;94835.97;;;11.45;41.50
73671;BME280;61968;48.178;11.566;2023-04-24T02:35:05;94831.38;;;11.25;41.88
73671;BME280;61968;48.178;11.566;2023-04-24T02:37:32;94835.03;;;11.19;42.22
73671;BME280;61968;48.178;11.566;2023-04-24T02:39:59;94833.31;;;10.97;42.58
73671;BME280;61968;48.178;11.566;2023-04-24T02:42:25;94834.03;;;10.88;42.87
73671;BME280;61968;48.178;11.566;2023-04-24T02:44:51;94839.25;;;10.77;43.03
73671;BME280;61968;48.178;11.566;2023-04-24T02:47:18;94844.94;;;10.64;43.43
73671;BME280;61968;48.178;11.566;2023-04-24T02:49:46;94834.09;;;10.66;43.65
73671;BME280;61968;48.178;11.566;2023-04-24T02:52:12;94839.06;;;10.89;43.33
73671;BME280;61968;48.178;11.566;2023-04-24T02:54:39;94835.66;;;10.94;42.83
73671;BME280;61968;48.178;11.566;2023-04-24T02:57:06;94842.38;;;10.74;43.48
73671;BME280;61968;48.178;11.566;2023-04-24T02:59:32;94835.97;;;10.65;43.42
73671;BME280;61968;48.178;11.566;2023-04-24T03:01:59;94839.09;;;10.62;43.84
73671;BME280;61968;48.178;11.566;2023-04-24T03:04:25;94841.19;;;10.60;43.82
73671;BME280;61968;48.178;11.566;2023-04-24T03:06:54;94835.84;;;10.50;44.38
73671;BME280;61968;48.178;11.566;2023-04-24T03:09:21;94839.31;;;10.55;44.51
73671;BME280;61968;48.178;11.566;2023-04-24T03:11:48;94838.09;;;10.68;44.11
73671;BME280;61968;48.178;11.566;2023-04-24T03:14:15;94841.31;;;10.75;44.12
73671;BME280;61968;48.178;11.566;2023-04-24T03:16:41;94834.22;;;10.49;44.49
73671;BME280;61968;48.178;11.566;2023-04-24T03:19:08;94835.34;;;10.26;45.31
73671;BME280;61968;48.178;11.566;2023-04-24T03:21:34;94832.50;;;10.32;45.39
73671;BME280;61968;48.178;11.566;2023-04-24T03:24:07;94843.63;;;10.34;45.30
73671;BME280;61968;48.178;11.566;2023-04-24T03:26:33;94846.34;;;10.45;44.81
73671;BME280;61968;48.178;11.566;2023-04-24T03:29:00;94845.28;;;10.46;44.97
73671;BME280;61968;48.178;11.566;2023-04-24T03:31:26;94844.41;;;10.35;45.54
73671;BME280;61968;48.178;11.566;2023-04-24T03:33:53;94844.22;;;10.42;45.31
73671;BME280;61968;48.178;11.566;2023-04-24T03:36:19;94841.13;;;10.50;45.48
73671;BME280;61968;48.178;11.566;2023-04-24T03:38:46;94844.28;;;10.52;44.91
73671;BME280;61968;48.178;11.566;2023-04-24T03:41:14;94844.25;;;10.47;45.43
73671;BME280;61968;48.178;11.566;2023-04-24T03:43:40;94848.94;;;10.39;45.64
73671;BME280;61968;48.178;11.566;2023-04-24T03:46:07;94858.34;;;10.25;45.53
73671;BME280;61968;48.178;11.566;2023-04-24T03:48:34;94850.84;;;10.17;46.45
73671;BME280;61968;48.178;11.566;2023-04-24T03:51:01;94851.59;;;10.39;47.05
73671;BME280;61968;48.178;11.566;2023-04-24T03:53:28;94846.31;;;10.72;51.07
73671;BME280;61968;48.178;11.566;2023-04-24T03:55:54;94838.06;;;10.95;49.18
73671;BME280;61968;48.178;11.566;2023-04-24T03:58:22;94833.47;;;11.23;48.13
73671;BME280;61968;48.178;11.566;2023-04-24T04:00:49;94832.56;;;11.49;46.34
73671;BME280;61968;48.178;11.566;2023-04-24T04:03:16;94825.03;;;11.84;45.21
73671;BME280;61968;48.178;11.566;2023-04-24T04:05:42;94828.53;;;11.94;45.41
73671;BME280;61968;48.178;11.566;2023-04-24T04:08:09;94828.22;;;11.91;45.51
73671;BME280;61968;48.178;11.566;2023-04-24T04:10:35;94825.84;;;11.79;43.70
73671;BME280;61968;48.178;11.566;2023-04-24T04:13:02;94826.09;;;11.83;46.91
73671;BME280;61968;48.178;11.566;2023-04-24T04:15:29;94820.28;;;11.91;47.04
73671;BME280;61968;48.178;11.566;2023-04-24T04:17:56;94820.28;;;11.86;44.41
73671;BME280;61968;48.178;11.566;2023-04-24T04:20:23;94819.66;;;11.68;45.56
73671;BME280;61968;48.178;11.566;2023-04-24T04:22:49;94826.34;;;11.76;43.68
73671;BME280;61968;48.178;11.566;2023-04-24T04:25:16;94826.63;;;11.80;43.81
73671;BME280;61968;48.178;11.566;2023-04-24T04:27:44;94832.47;;;11.87;43.40
73671;BME280;61968;48.178;11.566;2023-04-24T04:30:13;94828.59;;;11.57;43.50
73671;BME280;61968;48.178;11.566;2023-04-24T04:32:41;94839.41;;;11.40;45.98
73671;BME280;61968;48.178;11.566;2023-04-24T04:35:08;94835.50;;;11.58;44.96
73671;BME280;61968;48.178;11.566;2023-04-24T04:37:34;94842.50;;;11.80;45.97
73671;BME280;61968;48.178;11.566;2023-04-24T04:40:02;94842.34;;;12.17;44.52
73671;BME280;61968;48.178;11.566;2023-04-24T04:42:32;94837.34;;;12.51;44.50
73671;BME280;61968;48.178;11.566;2023-04-24T04:44:59;94845.09;;;12.83;43.25
73671;BME280;61968;48.178;11.566;2023-04-24T04:47:26;94842.69;;;13.02;41.69
73671;BME280;61968;48.178;11.566;2023-04-24T04:49:55;94851.22;;;12.94;41.96
73671;BME280;61968;48.178;11.566;2023-04-24T04:52:21;94852.50;;;12.97;42.54
73671;BME280;61968;48.178;11.566;2023-04-24T04:54:50;94855.69;;;13.14;42.20
73671;BME280;61968;48.178;11.566;2023-04-24T04:57:16;94859.38;;;13.18;41.48
73671;BME280;61968;48.178;11.566;2023-04-24T04:59:43;94850.38;;;13.24;40.99
73671;BME280;61968;48.178;11.566;2023-04-24T05:02:09;94857.00;;;13.11;41.36
73671;BME280;61968;48.178;11.566;2023-04-24T05:04:36;94851.69;;;13.22;40.78
73671;BME280;61968;48.178;11.566;2023-04-24T05:07:04;94858.06;;;13.31;40.77
73671;BME280;61968;48.178;11.566;2023-04-24T05:09:31;94855.41;;;13.26;40.56
73671;BME280;61968;48.178;11.566;2023-04-24T05:11:57;94867.84;;;13.46;39.40
73671;BME280;61968;48.178;11.566;2023-04-24T05:14:24;94868.72;;;12.95;40.48
73671;BME280;61968;48.178;11.566;2023-04-24T05:16:50;94872.94;;;12.96;39.97
73671;BME280;61968;48.178;11.566;2023-04-24T05:19:17;94865.75;;;12.61;39.47
73671;BME280;61968;48.178;11.566;2023-04-24T05:21:44;94868.88;;;11.59;41.44
73671;BME280;61968;48.178;11.566;2023-04-24T05:24:11;94876.28;;;11.62;41.28
73671;BME280;61968;48.178;11.566;2023-04-24T05:26:38;94874.97;;;11.17;42.48
73671;BME280;61968;48.178;11.566;2023-04-24T05:29:04;94877.78;;;11.00;42.59
73671;BME280;61968;48.178;11.566;2023-04-24T05:31:31;94881.56;;;11.10;42.42
73671;BME280;61968;48.178;11.566;2023-04-24T05:33:57;94875.66;;;11.02;42.54
73671;BME280;61968;48.178;11.566;2023-04-24T05:36:24;94878.03;;;10.99;42.55
73671;BME280;61968;48.178;11.566;2023-04-24T05:38:52;94880.56;;;10.83;42.95
73671;BME280;61968;48.178;11.566;2023-04-24T05:41:20;94875.81;;;10.85;42.73
73671;BME280;61968;48.178;11.566;2023-04-24T05:43:47;94874.41;;;10.51;43.65
73671;BME280;61968;48.178;11.566;2023-04-24T05:46:14;94881.66;;;10.33;44.02
73671;BME280;61968;48.178;11.566;2023-04-24T05:48:40;94887.50;;;10.35;43.88
73671;BME280;61968;48.178;11.566;2023-04-24T05:51:09;94881.91;;;10.59;43.28
73671;BME280;61968;48.178;11.566;2023-04-24T05:53:35;94885.50;;;10.48;43.54
73671;BME280;61968;48.178;11.566;2023-04-24T05:56:02;94891.06;;;10.24;44.03
73671;BME280;61968;48.178;11.566;2023-04-24T05:58:29;94889.56;;;10.33;43.94
73671;BME280;61968;48.178;11.566;2023-04-24T06:00:56;94895.47;;;10.40;43.62
73671;BME280;61968;48.178;11.566;2023-04-24T06:03:23;94896.63;;;10.23;44.32
73671;BME280;61968;48.178;11.566;2023-04-24T06:05:50;94896.81;;;10.16;44.50
73671;BME280;61968;48.178;11.566;2023-04-24T06:08:17;94897.28;;;9.91;44.93
73671;BME280;61968;48.178;11.566;2023-04-24T06:10:43;94892.16;;;10.01;44.92
73671;BME280;61968;48.178;11.566;2023-04-24T06:13:10;94898.13;;;10.18;44.64
73671;BME280;61968;48.178;11.566;2023-04-24T06:15:38;94897.25;;;10.08;44.78
73671;BME280;61968;48.178;11.566;2023-04-24T06:18:05;94886.19;;;10.11;44.81
73671;BME280;61968;48.178;11.566;2023-04-24T06:20:32;94897.84;;;10.15;44.99
73671;BME280;61968;48.178;11.566;2023-04-24T06:22:58;94896.06;;;10.21;44.70
73671;BME280;61968;48.178;11.566;2023-04-24T06:25:25;94895.91;;;10.32;44.37
73671;BME280;61968;48.178;11.566;2023-04-24T06:27:52;94898.41;;;10.44;44.23
73671;BME280;61968;48.178;11.566;2023-04-24T06:30:18;94901.91;;;10.50;43.65
73671;BME280;61968;48.178;11.566;2023-04-24T06:32:46;94909.84;;;10.50;43.44
73671;BME280;61968;48.178;11.566;2023-04-24T06:35:13;94911.00;;;10.10;44.14
73671;BME280;61968;48.178;11.566;2023-04-24T06:37:39;94909.41;;;9.87;45.03
73671;BME280;61968;48.178;11.566;2023-04-24T06:40:06;94897.19;;;9.81;45.51
73671;BME280;61968;48.178;11.566;2023-04-24T06:42:33;94906.16;;;10.02;45.19
73671;BME280;61968;48.178;11.566;2023-04-24T06:45:00;94901.22;;;10.10;44.85
73671;BME280;61968;48.178;11.566;2023-04-24T06:47:27;94905.34;;;10.23;44.60
73671;BME280;61968;48.178;11.566;2023-04-24T06:49:54;94912.19;;;10.24;44.74
73671;BME280;61968;48.178;11.566;2023-04-24T06:52:21;94913.59;;;10.05;44.68
73671;BME280;61968;48.178;11.566;2023-04-24T06:54:47;94915.44;;;9.65;45.81
73671;BME280;61968;48.178;11.566;2023-04-24T06:57:14;94918.94;;;9.71;45.63
73671;BME280;61968;48.178;11.566;2023-04-24T06:59:41;94926.66;;;9.56;45.48
73671;BME280;61968;48.178;11.566;2023-04-24T07:02:08;94912.63;;;9.72;45.37
73671;BME280;61968;48.178;11.566;2023-04-24T07:04:34;94916.53;;;9.69;45.01
73671;BME280;61968;48.178;11.566;2023-04-24T07:07:03;94921.22;;;9.62;45.45
73671;BME280;61968;48.178;11.566;2023-04-24T07:09:29;94911.81;;;9.49;45.88
73671;BME280;61968;48.178;11.566;2023-04-24T07:11:57;94915.03;;;9.74;45.07
73671;BME280;61968;48.178;11.566;2023-04-24T07:14:23;94918.91;;;9.88;44.60
73671;BME280;61968;48.178;11.566;2023-04-24T07:16:50;94923.06;;;10.01;44.27
73671;BME280;61968;48.178;11.566;2023-04-24T07:19:16;94923.75;;;10.18;44.43
73671;BME280;61968;48.178;11.566;2023-04-24T07:21:42;94923.75;;;10.18;43.65
73671;BME280;61968;48.178;11.566;2023-04-24T07:24:10;94927.66;;;10.10;43.88
73671;BME280;61968;48.178;11.566;2023-04-24T07:26:38;94932.94;;;10.10;43.57
73671;BME280;61968;48.178;11.566;2023-04-24T07:29:05;94936.25;;;10.23;43.58
73671;BME280;61968;48.178;11.566;2023-04-24T07:31:31;94936.28;;;10.06;44.05
73671;BME280;61968;48.178;11.566;2023-04-24T07:33:58;94935.97;;;10.24;43.78
73671;BME280;61968;48.178;11.566;2023-04-24T07:36:24;94940.84;;;10.32;43.98
73671;BME280;61968;48.178;11.566;2023-04-24T07:38:51;94941.19;;;10.41;43.04
73671;BME280;61968;48.178;11.566;2023-04-24T07:41:19;94947.03;;;9.99;43.94
73671;BME280;61968;48.178;11.566;2023-04-24T07:43:45;94938.53;;;9.75;43.76
73671;BME280;61968;48.178;11.566;2023-04-24T07:46:12;94942.03;;;9.98;43.53
73671;BME280;61968;48.178;11.566;2023-04-24T07:48:38;94950.97;;;9.97;42.98
73671;BME280;61968;48.178;11.566;2023-04-24T07:51:05;94936.16;;;9.57;43.63
73671;BME280;61968;48.178;11.566;2023-04-24T07:53:31;94939.47;;;9.47;44.59
73671;BME280;61968;48.178;11.566;2023-04-24T07:55:58;94952.69;;;9.86;43.84
73671;BME280;61968;48.178;11.566;2023-04-24T07:58:25;94949.47;;;10.01;43.58
73671;BME280;61968;48.178;11.566;2023-04-24T08:00:52;94955.66;;;10.11;43.79
73671;BME280;61968;48.178;11.566;2023-04-24T08:03:18;94958.28;;;10.33;43.47
73671;BME280;61968;48.178;11.566;2023-04-24T08:05:45;94957.28;;;10.39;43.05
73671;BME280;61968;48.178;11.566;2023-04-24T08:08:12;94962.41;;;10.02;42.86
73671;BME280;61968;48.178;11.566;2023-04-24T08:10:38;94961.41;;;10.08;43.56
73671;BME280;61968;48.178;11.566;2023-04-24T08:13:05;94956.31;;;10.02;43.36
73671;BME280;61968;48.178;11.566;2023-04-24T08:15:33;94965.38;;;10.28;42.38
73671;BME280;61968;48.178;11.566;2023-04-24T08:17:59;94960.63;;;10.08;43.00
73671;BME280;61968;48.178;11.566;2023-04-24T08:20:26;94964.31;;;10.07;43.09
73671;BME280;61968;48.178;11.566;2023-04-24T08:22:52;94968.63;;;10.13;43.50
73671;BME280;61968;48.178;11.566;2023-04-24T08:25:19;94969.03;;;10.27;43.04
73671;BME280;61968;48.178;11.566;2023-04-24T08:27:48;94976.09;;;10.21;43.20
73671;BME280;61968;48.178;11.566;2023-04-24T08:30:14;94976.84;;;10.38;42.92
73671;BME280;61968;48.178;11.566;2023-04-24T08:32:42;94978.03;;;10.04;44.13
73671;BME280;61968;48.178;11.566;2023-04-24T08:35:09;94984.63;;;10.06;44.89
73671;BME280;61968;48.178;11.566;2023-04-24T08:37:35;94991.88;;;9.94;45.59
73671;BME280;61968;48.178;11.566;2023-04-24T08:40:06;94995.03;;;9.23;47.00
73671;BME280;61968;48.178;11.566;2023-04-24T08:42:34;94995.09;;;9.12;48.58
73671;BME280;61968;48.178;11.566;2023-04-24T08:45:03;95001.44;;;9.11;47.64
73671;BME280;61968;48.178;11.566;2023-04-24T08:47:32;95007.78;;;8.81;47.83
73671;BME280;61968;48.178;11.566;2023-04-24T08:50:02;95004.03;;;8.77;45.91
73671;BME280;61968;48.178;11.566;2023-04-24T08:52:32;95010.53;;;9.03;44.29
73671;BME280;61968;48.178;11.566;2023-04-24T08:54:59;95005.31;;;8.91;43.15
73671;BME280;61968;48.178;11.566;2023-04-24T08:57:27;95023.13;;;9.46;42.02
73671;BME280;61968;48.178;11.566;2023-04-24T08:59:54;95013.81;;;9.27;40.94
73671;BME280;61968;48.178;11.566;2023-04-24T09:02:21;95019.47;;;8.33;41.98
73671;BME280;61968;48.178;11.566;2023-04-24T09:04:49;95028.34;;;8.67;42.65
73671;BME280;61968;48.178;11.566;2023-04-24T09:07:17;95020.16;;;8.40;42.58
73671;BME280;61968;48.178;11.566;2023-04-24T09:09:45;95032.88;;;9.00;42.23
73671;BME280;61968;48.178;11.566;2023-04-24T09:12:12;95025.59;;;8.91;41.31
73671;BME280;61968;48.178;11.566;2023-04-24T09:14:39;95028.28;;;9.08;41.69
73671;BME280;61968;48.178;11.566;2023-04-24T09:17:10;95026.94;;;9.22;40.62
73671;BME280;61968;48.178;11.566;2023-04-24T09:19:36;95017.44;;;9.38;40.82
73671;BME280;61968;48.178;11.566;2023-04-24T09:22:04;95009.09;;;9.63;40.10
73671;BME280;61968;48.178;11.566;2023-04-24T09:24:33;95017.59;;;9.31;40.67
73671;BME280;61968;48.178;11.566;2023-04-24T09:27:00;95024.63;;;9.42;39.97
73671;BME280;61968;48.178;11.566;2023-04-24T09:29:27;95028.41;;;9.46;40.43
73671;BME280;61968;48.178;11.566;2023-04-24T09:31:54;95021.81;;;9.66;40.09
73671;BME280;61968;48.178;11.566;2023-04-24T09:34:22;95023.19;;;9.35;39.23
73671;BME280;61968;48.178;11.566;2023-04-24T09:36:49;95026.31;;;9.32;39.61
73671;BME280;61968;48.178;11.566;2023-04-24T09:39:16;95028.31;;;9.58;39.74
73671;BME280;61968;48.178;11.566;2023-04-24T09:41:48;95032.84;;;9.63;39.16
73671;BME280;61968;48.178;11.566;2023-04-24T09:44:15;95033.72;;;9.52;38.35
73671;BME280;61968;48.178;11.566;2023-04-24T09:46:43;95026.31;;;9.32;38.59
73671;BME280;61968;48.178;11.566;2023-04-24T09:49:12;95025.66;;;9.08;40.21
73671;BME280;61968;48.178;11.566;2023-04-24T09:51:40;95014.16;;;9.47;38.95
73671;BME280;61968;48.178;11.566;2023-04-24T09:54:14;95031.09;;;9.18;39.76
73671;BME280;61968;48.178;11.566;2023-04-24T09:56:43;95024.78;;;9.53;39.21
73671;BME280;61968;48.178;11.566;2023-04-24T09:59:12;95011.91;;;9.56;39.39
73671;BME280;61968;48.178;11.566;2023-04-24T10:01:39;95010.88;;;10.57;42.75
73671;BME280;61968;48.178;11.566;2023-04-24T10:04:15;95016.63;;;11.30;39.19
73671;BME280;61968;48.178;11.566;2023-04-24T10:06:42;95007.75;;;11.73;38.12
73671;BME280;61968;48.178;11.566;2023-04-24T10:09:09;95008.81;;;11.77;38.76
73671;BME280;61968;48.178;11.566;2023-04-24T10:11:37;95009.66;;;12.31;35.59
73671;BME280;61968;48.178;11.566;2023-04-24T10:14:09;95021.38;;;12.50;36.95
73671;BME280;61968;48.178;11.566;2023-04-24T10:16:37;95027.34;;;12.83;34.46
73671;BME280;61968;48.178;11.566;2023-04-24T10:19:06;95019.50;;;12.51;35.74
73671;BME280;61968;48.178;11.566;2023-04-24T10:21:32;95017.50;;;12.73;34.68
73671;BME280;61968;48.178;11.566;2023-04-24T10:23:59;95016.63;;;12.57;35.85
73671;BME280;61968;48.178;11.566;2023-04-24T10:26:29;95013.50;;;12.65;35.83
73671;BME280;61968;48.178;11.566;2023-04-24T10:28:57;95010.13;;;13.06;35.66
73671;BME280;61968;48.178;11.566;2023-04-24T10:31:25;95005.84;;;12.84;37.36
73671;BME280;61968;48.178;11.566;2023-04-24T10:33:53;95003.00;;;13.17;34.53
73671;BME280;61968;48.178;11.566;2023-04-24T10:36:22;94999.00;;;13.14;36.54
73671;BME280;61968;48.178;11.566;2023-04-24T10:38:52;95003.78;;;13.48;35.15
73671;BME280;61968;48.178;11.566;2023-04-24T10:41:25;95000.38;;;13.68;35.39
73671;BME280;61968;48.178;11.566;2023-04-24T10:44:04;95002.75;;;13.74;35.02
73671;BME280;61968;48.178;11.566;2023-04-24T10:46:31;95007.56;;;13.52;34.74
73671;BME280;61968;48.178;11.566;2023-04-24T10:48:59;95023.72;;;13.25;35.10
73671;BME280;61968;48.178;11.566;2023-04-24T10:51:44;95054.44;;;12.32;38.75
73671;BME280;61968;48.178;11.566;2023-04-24T10:54:22;95088.00;;;11.47;41.47
73671;BME280;61968;48.178;11.566;2023-04-24T10:56:50;95086.94;;;11.48;41.29
73671;BME280;61968;48.178;11.566;2023-04-24T10:59:24;95076.19;;;11.33;41.91
73671;BME280;61968;48.178;11.566;2023-04-24T11:01:53;95068.56;;;11.68;41.41
73671;BME280;61968;48.178;11.566;2023-04-24T11:04:31;95053.56;;;12.16;39.90
73671;BME280;61968;48.178;11.566;2023-04-24T11:06:58;95047.94;;;12.08;39.99
73671;BME280;61968;48.178;11.566;2023-04-24T11:09:26;95041.53;;;11.98;41.18
73671;BME280;61968;48.178;11.566;2023-04-24T11:12:03;95044.31;;;12.19;40.95
73671;BME280;61968;48.178;11.566;2023-04-24T11:15:00;95039.69;;;12.52;40.63
73671;BME280;61968;48.178;11.566;2023-04-24T11:17:29;95033.41;;;12.68;40.43
73671;BME280;61968;48.178;11.566;2023-04-24T11:20:02;95035.13;;;12.42;39.78
73671;BME280;61968;48.178;11.566;2023-04-24T11:22:32;95035.22;;;11.72;40.78
73671;BME280;61968;48.178;11.566;2023-04-24T11:25:00;95031.09;;;11.17;42.43
73671;BME280;61968;48.178;11.566;2023-04-24T11:27:29;95038.19;;;11.44;43.45
73671;BME280;61968;48.178;11.566;2023-04-24T11:30:00;95042.84;;;11.31;43.89
73671;BME280;61968;48.178;11.566;2023-04-24T11:32:28;95041.16;;;11.80;42.38
73671;BME280;61968;48.178;11.566;2023-04-24T11:34:56;95049.56;;;12.14;41.94
73671;BME280;61968;48.178;11.566;2023-04-24T11:37:26;95057.44;;;11.34;42.76
73671;BME280;61968;48.178;11.566;2023-04-24T11:39:53;95058.25;;;11.35;43.80
73671;BME280;61968;48.178;11.566;2023-04-24T11:42:21;95055.34;;;11.09;42.93
73671;BME280;61968;48.178;11.566;2023-04-24T11:44:47;95055.44;;;11.51;44.17
73671;BME280;61968;48.178;11.566;2023-04-24T11:47:15;95050.84;;;12.06;42.53
73671;BME280;61968;48.178;11.566;2023-04-24T11:49:41;95043.28;;;12.30;40.00
73671;BME280;61968;48.178;11.566;2023-04-24T11:52:08;95047.41;;;12.58;39.52
73671;BME280;61968;48.178;11.566;2023-04-24T11:54:37;95047.88;;;12.50;40.11
73671;BME280;61968;48.178;11.566;2023-04-24T11:57:04;95043.91;;;11.95;37.99
73671;BME280;61968;48.178;11.566;2023-04-24T11:59:35;95045.91;;;10.69;39.18
73671;BME280;61968;48.178;11.566;2023-04-24T12:02:02;95039.66;;;11.29;42.09
73671;BME280;61968;48.178;11.566;2023-04-24T12:04:38;95038.72;;;12.15;39.14
73671;BME280;61968;48.178;11.566;2023-04-24T12:07:05;95034.25;;;12.26;38.39
73671;BME280;61968;48.178;11.566;2023-04-24T12:09:45;95031.88;;;12.25;39.34
73671;BME280;61968;48.178;11.566;2023-04-24T12:12:13;95026.41;;;12.47;39.75
73671;BME280;61968;48.178;11.566;2023-04-24T12:14:54;95027.81;;;12.64;37.05
73671;BME280;61968;48.178;11.566;2023-04-24T12:17:24;95027.34;;;12.20;38.68
73671;BME280;61968;48.178;11.566;2023-04-24T12:19:51;95026.09;;;11.85;37.45
73671;BME280;61968;48.178;11.566;2023-04-24T12:22:18;95017.00;;;12.18;37.15
73671;BME280;61968;48.178;11.566;2023-04-24T12:25:00;95017.34;;;12.42;36.31
73671;BME280;61968;48.178;11.566;2023-04-24T12:27:30;95013.41;;;12.50;37.75
73671;BME280;61968;48.178;11.566;2023-04-24T12:29:58;95014.97;;;12.41;35.65
73671;BME280;61968;48.178;11.566;2023-04-24T12:32:24;95016.34;;;12.54;37.96
73671;BME280;61968;48.178;11.566;2023-04-24T12:34:51;95018.09;;;12.28;35.69
73671;BME280;61968;48.178;11.566;2023-04-24T12:37:18;95026.59;;;12.30;38.46
73671;BME280;61968;48.178;11.566;2023-04-24T12:40:00;95007.78;;;12.36;36.20
73671;BME280;61968;48.178;11.566;2023-04-24T12:42:27;95012.91;;;12.53;34.26
73671;BME280;61968;48.178;11.566;2023-04-24T12:44:56;95007.78;;;12.31;32.75
73671;BME280;61968;48.178;11.566;2023-04-24T12:47:23;94995.41;;;12.57;35.61
73671;BME280;61968;48.178;11.566;2023-04-24T12:49:50;95006.28;;;12.56;33.40
73671;BME280;61968;48.178;11.566;2023-04-24T12:52:17;95006.94;;;12.20;36.88
73671;BME280;61968;48.178;11.566;2023-04-24T12:54:45;95012.34;;;11.93;34.61